Aérodrome :
LOGIN :

S'inscrire | Disclaimer

   EN    FR    IT 

 










Légende :    VFR   VFR Marginal   IFR   IFR Intensif   IFR Très Intensif
Visi : 
Plafond : 
>= 8 km
>= 3000ft
5 à 8 km
1000 à 3000 ft
1500m à 5 km
500 à 1000 ft
800 à 1500m
200 à 500 ft
< 800m
< 200 ft
Symboles :   Orages  Brouillard  Fortes neiges  Fortes précipitations  Vent > 20 kt
SIGMETs :   Divers  Orages  Givrage  Turbulence  Onde Orograph.  Cendres Volcan.






- Altitude de l'aérodrome : 157 ft
- Code IATA : LIL


LFQQ - Lille Lesquin

DERNIER METAR :
  • 282030Z AUTO 14003KT 6000 NSC 06/06 Q1013 BECMG 2000 BR

METARs EXPIRÉS :
  • 282000Z AUTO 15002KT 9999 2700 NSC 07/06 Q1012 NOSIG
  • 281930Z AUTO 11003KT 9999 NSC 08/07 Q1012 NOSIG
  • 281900Z AUTO VRB02KT 9999 NSC 08/07 Q1012 NOSIG
  • 281830Z AUTO 19006KT 9999 FEW042 SCT062 08/07 Q1012 NOSIG
  • 281800Z AUTO 18006KT 9999 FEW025 BKN033 OVC045 09/07 Q1012 NOSIG

TAF TAF LFQQ
Valide du 28 à 18h jusqu'au 30 à 00h UTC


281700Z 2818/2924 VRB03KT 9999 SCT020
BECMG 2822/2901 2000 BR
PROB40 2901/2910 0600 FG VV///
BECMG 2910/2912 9999 NSW BKN012
BECMG 2912/2914 BKN020
ATIS : +33 3 20 16 19 54



MET'MAP, la Météo Aéronautique d'un coup d'oeil ! - Copyright ORBIFLY Décembre 2007 - Disclaimer

ORBIFLY MET'MAP TEAM :

Programmation & Développement : Alexandra Zaïnal
Sur une idée originale de : Baudouin d'Aumeries
Soutien technique & logistique : Manuel Goepfert
Assistance : Marc-Olivier Méhu




SOURCES & CREDITS :

   NOAA